sensor_id;sensor_type;location;lat;lon;timestamp;temperature;humidity
16032;DHT22;8120;48.308;8.914;2024-02-15T00:01:31;7.70;84.20
16032;DHT22;8120;48.308;8.914;2024-02-15T00:03:59;7.60;84.80
16032;DHT22;8120;48.308;8.914;2024-02-15T00:06:27;7.60;84.60
16032;DHT22;8120;48.308;8.914;2024-02-15T00:08:55;7.50;84.80
16032;DHT22;8120;48.308;8.914;2024-02-15T00:11:23;7.40;85.00
16032;DHT22;8120;48.308;8.914;2024-02-15T00:13:51;7.40;85.10
16032;DHT22;8120;48.308;8.914;2024-02-15T00:16:20;7.20;84.70
16032;DHT22;8120;48.308;8.914;2024-02-15T00:18:48;7.00;85.30
16032;DHT22;8120;48.308;8.914;2024-02-15T00:21:16;6.80;85.70
16032;DHT22;8120;48.308;8.914;2024-02-15T00:23:45;6.60;86.10
16032;DHT22;8120;48.308;8.914;2024-02-15T00:26:13;6.50;86.90
16032;DHT22;8120;48.308;8.914;2024-02-15T00:28:41;6.30;87.60
16032;DHT22;8120;48.308;8.914;2024-02-15T00:31:09;6.30;88.50
16032;DHT22;8120;48.308;8.914;2024-02-15T00:33:38;6.20;88.70
16032;DHT22;8120;48.308;8.914;2024-02-15T00:36:07;6.10;89.00
16032;DHT22;8120;48.308;8.914;2024-02-15T00:38:35;6.00;89.50
16032;DHT22;8120;48.308;8.914;2024-02-15T00:41:05;5.90;90.20
16032;DHT22;8120;48.308;8.914;2024-02-15T00:43:34;5.90;90.80
16032;DHT22;8120;48.308;8.914;2024-02-15T00:46:03;5.90;91.30
16032;DHT22;8120;48.308;8.914;2024-02-15T00:48:31;5.90;91.70
16032;DHT22;8120;48.308;8.914;2024-02-15T00:51:01;5.90;91.90
16032;DHT22;8120;48.308;8.914;2024-02-15T00:53:30;5.90;92.00
16032;DHT22;8120;48.308;8.914;2024-02-15T00:55:57;5.90;91.60
16032;DHT22;8120;48.308;8.914;2024-02-15T00:58:26;5.80;91.70
16032;DHT22;8120;48.308;8.914;2024-02-15T01:00:54;5.80;91.80
16032;DHT22;8120;48.308;8.914;2024-02-15T01:03:22;5.70;91.50
16032;DHT22;8120;48.308;8.914;2024-02-15T01:05:50;5.60;91.50
16032;DHT22;8120;48.308;8.914;2024-02-15T01:08:20;5.50;91.50
16032;DHT22;8120;48.308;8.914;2024-02-15T01:10:48;5.40;91.60
16032;DHT22;8120;48.308;8.914;2024-02-15T01:13:15;5.30;91.90
16032;DHT22;8120;48.308;8.914;2024-02-15T01:15:43;5.30;92.40
16032;DHT22;8120;48.308;8.914;2024-02-15T01:18:12;5.30;93.10
16032;DHT22;8120;48.308;8.914;2024-02-15T01:20:41;5.20;93.00
16032;DHT22;8120;48.308;8.914;2024-02-15T01:23:09;5.00;92.80
16032;DHT22;8120;48.308;8.914;2024-02-15T01:25:38;5.00;92.90
16032;DHT22;8120;48.308;8.914;2024-02-15T01:28:06;4.90;93.20
16032;DHT22;8120;48.308;8.914;2024-02-15T01:30:34;4.90;93.90
16032;DHT22;8120;48.308;8.914;2024-02-15T01:33:03;4.90;94.30
16032;DHT22;8120;48.308;8.914;2024-02-15T01:35:31;4.90;94.50
16032;DHT22;8120;48.308;8.914;2024-02-15T01:37:59;4.80;94.30
16032;DHT22;8120;48.308;8.914;2024-02-15T01:40:27;4.70;93.50
16032;DHT22;8120;48.308;8.914;2024-02-15T01:42:56;4.60;93.80
16032;DHT22;8120;48.308;8.914;2024-02-15T01:45:25;4.40;93.40
16032;DHT22;8120;48.308;8.914;2024-02-15T01:47:53;4.30;93.20
16032;DHT22;8120;48.308;8.914;2024-02-15T01:50:22;4.20;93.20
16032;DHT22;8120;48.308;8.914;2024-02-15T01:52:52;4.10;93.30
16032;DHT22;8120;48.308;8.914;2024-02-15T01:55:23;3.90;93.50
16032;DHT22;8120;48.308;8.914;2024-02-15T01:57:51;3.90;94.50
16032;DHT22;8120;48.308;8.914;2024-02-15T02:00:21;3.90;95.00
16032;DHT22;8120;48.308;8.914;2024-02-15T02:02:53;3.90;95.50
16032;DHT22;8120;48.308;8.914;2024-02-15T02:05:22;3.80;95.70
16032;DHT22;8120;48.308;8.914;2024-02-15T02:07:50;3.80;96.00
16032;DHT22;8120;48.308;8.914;2024-02-15T02:10:18;3.80;96.40
16032;DHT22;8120;48.308;8.914;2024-02-15T02:12:46;3.80;96.50
16032;DHT22;8120;48.308;8.914;2024-02-15T02:15:14;3.80;96.60
16032;DHT22;8120;48.308;8.914;2024-02-15T02:17:48;3.70;96.50
16032;DHT22;8120;48.308;8.914;2024-02-15T02:20:16;3.70;96.90
16032;DHT22;8120;48.308;8.914;2024-02-15T02:22:47;3.80;97.50
16032;DHT22;8120;48.308;8.914;2024-02-15T02:25:17;3.70;97.60
16032;DHT22;8120;48.308;8.914;2024-02-15T02:27:47;3.80;97.80
16032;DHT22;8120;48.308;8.914;2024-02-15T02:30:16;3.80;97.80
16032;DHT22;8120;48.308;8.914;2024-02-15T02:32:46;3.80;98.10
16032;DHT22;8120;48.308;8.914;2024-02-15T02:35:14;3.70;97.50
16032;DHT22;8120;48.308;8.914;2024-02-15T02:37:43;3.60;97.10
16032;DHT22;8120;48.308;8.914;2024-02-15T02:40:11;3.50;97.00
16032;DHT22;8120;48.308;8.914;2024-02-15T02:42:52;3.40;97.00
16032;DHT22;8120;48.308;8.914;2024-02-15T02:45:20;3.40;96.80
16032;DHT22;8120;48.308;8.914;2024-02-15T02:47:50;3.30;97.20
16032;DHT22;8120;48.308;8.914;2024-02-15T02:50:21;3.40;97.70
16032;DHT22;8120;48.308;8.914;2024-02-15T02:52:50;3.50;98.70
16032;DHT22;8120;48.308;8.914;2024-02-15T02:55:18;3.70;99.60
16032;DHT22;8120;48.308;8.914;2024-02-15T02:57:47;3.70;99.70
16032;DHT22;8120;48.308;8.914;2024-02-15T03:00:17;3.80;99.90
16032;DHT22;8120;48.308;8.914;2024-02-15T03:02:47;3.80;99.90
16032;DHT22;8120;48.308;8.914;2024-02-15T03:05:15;3.80;99.90
16032;DHT22;8120;48.308;8.914;2024-02-15T03:07:43;3.70;99.80
16032;DHT22;8120;48.308;8.914;2024-02-15T03:10:12;3.70;99.80
16032;DHT22;8120;48.308;8.914;2024-02-15T03:12:41;4.10;99.90
16032;DHT22;8120;48.308;8.914;2024-02-15T03:15:16;4.20;99.90
16032;DHT22;8120;48.308;8.914;2024-02-15T03:17:46;4.30;99.90
16032;DHT22;8120;48.308;8.914;2024-02-15T03:20:14;4.30;99.90
16032;DHT22;8120;48.308;8.914;2024-02-15T03:22:53;4.30;99.90
16032;DHT22;8120;48.308;8.914;2024-02-15T03:25:21;4.20;98.70
16032;DHT22;8120;48.308;8.914;2024-02-15T03:27:51;4.00;98.20
16032;DHT22;8120;48.308;8.914;2024-02-15T03:30:22;3.80;97.80
16032;DHT22;8120;48.308;8.914;2024-02-15T03:32:51;3.70;97.50
16032;DHT22;8120;48.308;8.914;2024-02-15T03:35:20;3.50;97.70
16032;DHT22;8120;48.308;8.914;2024-02-15T03:37:50;3.40;97.50
16032;DHT22;8120;48.308;8.914;2024-02-15T03:40:19;3.20;97.00
16032;DHT22;8120;48.308;8.914;2024-02-15T03:42:47;3.00;96.90
16032;DHT22;8120;48.308;8.914;2024-02-15T03:45:17;2.90;97.00
16032;DHT22;8120;48.308;8.914;2024-02-15T03:47:46;2.90;97.30
16032;DHT22;8120;48.308;8.914;2024-02-15T03:50:17;2.90;97.50
16032;DHT22;8120;48.308;8.914;2024-02-15T03:52:45;2.90;98.00
16032;DHT22;8120;48.308;8.914;2024-02-15T03:55:13;2.90;98.40
16032;DHT22;8120;48.308;8.914;2024-02-15T03:57:42;2.90;98.60
16032;DHT22;8120;48.308;8.914;2024-02-15T04:00:12;2.90;98.80
16032;DHT22;8120;48.308;8.914;2024-02-15T04:02:48;2.90;99.10
16032;DHT22;8120;48.308;8.914;2024-02-15T04:05:17;2.90;99.40
16032;DHT22;8120;48.308;8.914;2024-02-15T04:07:46;2.80;99.00
16032;DHT22;8120;48.308;8.914;2024-02-15T04:10:14;2.70;98.80
16032;DHT22;8120;48.308;8.914;2024-02-15T04:12:44;2.70;98.60
16032;DHT22;8120;48.308;8.914;2024-02-15T04:15:13;2.70;98.40
16032;DHT22;8120;48.308;8.914;2024-02-15T04:17:44;2.60;98.50
16032;DHT22;8120;48.308;8.914;2024-02-15T04:20:14;2.70;98.50
16032;DHT22;8120;48.308;8.914;2024-02-15T04:22:44;2.60;98.00
16032;DHT22;8120;48.308;8.914;2024-02-15T04:25:14;2.60;98.20
16032;DHT22;8120;48.308;8.914;2024-02-15T04:27:45;2.60;98.50
16032;DHT22;8120;48.308;8.914;2024-02-15T04:30:13;2.60;98.40
16032;DHT22;8120;48.308;8.914;2024-02-15T04:32:42;2.50;98.20
16032;DHT22;8120;48.308;8.914;2024-02-15T04:35:10;2.40;98.10
16032;DHT22;8120;48.308;8.914;2024-02-15T04:37:42;2.40;98.30
16032;DHT22;8120;48.308;8.914;2024-02-15T04:40:10;2.40;98.10
16032;DHT22;8120;48.308;8.914;2024-02-15T04:42:40;2.40;98.40
16032;DHT22;8120;48.308;8.914;2024-02-15T04:45:10;2.40;98.50
16032;DHT22;8120;48.308;8.914;2024-02-15T04:47:40;2.40;99.00
16032;DHT22;8120;48.308;8.914;2024-02-15T04:50:09;2.40;98.90
16032;DHT22;8120;48.308;8.914;2024-02-15T04:52:37;2.30;98.90
16032;DHT22;8120;48.308;8.914;2024-02-15T04:55:07;2.40;99.40
16032;DHT22;8120;48.308;8.914;2024-02-15T04:57:35;2.30;99.40
16032;DHT22;8120;48.308;8.914;2024-02-15T05:00:05;2.20;99.20
16032;DHT22;8120;48.308;8.914;2024-02-15T05:02:37;2.10;98.90
16032;DHT22;8120;48.308;8.914;2024-02-15T05:05:07;2.10;99.10
16032;DHT22;8120;48.308;8.914;2024-02-15T05:07:36;2.10;99.50
16032;DHT22;8120;48.308;8.914;2024-02-15T05:10:08;2.10;99.80
16032;DHT22;8120;48.308;8.914;2024-02-15T05:12:38;2.20;99.90
16032;DHT22;8120;48.308;8.914;2024-02-15T05:15:07;2.20;99.90
16032;DHT22;8120;48.308;8.914;2024-02-15T05:17:40;2.10;99.80
16032;DHT22;8120;48.308;8.914;2024-02-15T05:20:10;2.00;99.80
16032;DHT22;8120;48.308;8.914;2024-02-15T05:22:40;2.00;99.90
16032;DHT22;8120;48.308;8.914;2024-02-15T05:25:17;2.00;99.90
16032;DHT22;8120;48.308;8.914;2024-02-15T05:27:50;2.30;99.90
16032;DHT22;8120;48.308;8.914;2024-02-15T05:30:21;2.90;99.90
16032;DHT22;8120;48.308;8.914;2024-02-15T05:32:49;2.70;99.90
16032;DHT22;8120;48.308;8.914;2024-02-15T05:35:19;2.50;99.90
16032;DHT22;8120;48.308;8.914;2024-02-15T05:37:47;2.20;99.90
16032;DHT22;8120;48.308;8.914;2024-02-15T05:40:16;1.90;99.90
16032;DHT22;8120;48.308;8.914;2024-02-15T05:42:46;1.70;99.90
16032;DHT22;8120;48.308;8.914;2024-02-15T05:45:30;1.50;99.60
16032;DHT22;8120;48.308;8.914;2024-02-15T05:48:01;1.30;99.20
16032;DHT22;8120;48.308;8.914;2024-02-15T05:50:29;1.30;99.40
16032;DHT22;8120;48.308;8.914;2024-02-15T05:52:58;1.30;99.40
16032;DHT22;8120;48.308;8.914;2024-02-15T05:55:29;1.30;99.70
16032;DHT22;8120;48.308;8.914;2024-02-15T05:58:01;1.70;99.90
16032;DHT22;8120;48.308;8.914;2024-02-15T06:00:29;2.20;99.90
16032;DHT22;8120;48.308;8.914;2024-02-15T06:02:58;2.30;99.90
16032;DHT22;8120;48.308;8.914;2024-02-15T06:05:28;2.40;99.90
16032;DHT22;8120;48.308;8.914;2024-02-15T06:07:56;2.20;99.90
16032;DHT22;8120;48.308;8.914;2024-02-15T06:10:25;1.90;99.90
16032;DHT22;8120;48.308;8.914;2024-02-15T06:12:54;1.60;99.90
16032;DHT22;8120;48.308;8.914;2024-02-15T06:15:22;1.40;99.90
16032;DHT22;8120;48.308;8.914;2024-02-15T06:17:50;1.30;99.90
16032;DHT22;8120;48.308;8.914;2024-02-15T06:20:18;1.20;99.90
16032;DHT22;8120;48.308;8.914;2024-02-15T06:22:47;1.20;99.90
16032;DHT22;8120;48.308;8.914;2024-02-15T06:25:15;1.20;99.90
16032;DHT22;8120;48.308;8.914;2024-02-15T06:27:47;1.40;99.90
16032;DHT22;8120;48.308;8.914;2024-02-15T06:30:19;1.40;99.90
16032;DHT22;8120;48.308;8.914;2024-02-15T06:33:04;1.60;99.90
16032;DHT22;8120;48.308;8.914;2024-02-15T06:36:05;1.90;99.90
16032;DHT22;8120;48.308;8.914;2024-02-15T06:38:50;2.10;99.90
16032;DHT22;8120;48.308;8.914;2024-02-15T06:41:35;2.00;99.90
16032;DHT22;8120;48.308;8.914;2024-02-15T06:44:04;2.00;99.90
16032;DHT22;8120;48.308;8.914;2024-02-15T06:46:33;2.00;99.90
16032;DHT22;8120;48.308;8.914;2024-02-15T06:49:01;2.00;99.90
16032;DHT22;8120;48.308;8.914;2024-02-15T06:51:29;2.00;99.90
16032;DHT22;8120;48.308;8.914;2024-02-15T06:53:57;1.90;99.90
16032;DHT22;8120;48.308;8.914;2024-02-15T06:56:25;1.70;99.90
16032;DHT22;8120;48.308;8.914;2024-02-15T06:58:53;1.60;99.90
16032;DHT22;8120;48.308;8.914;2024-02-15T07:01:23;1.70;99.90
16032;DHT22;8120;48.308;8.914;2024-02-15T07:03:53;1.90;99.90
16032;DHT22;8120;48.308;8.914;2024-02-15T07:06:25;2.10;99.90
16032;DHT22;8120;48.308;8.914;2024-02-15T07:08:54;2.40;99.90
16032;DHT22;8120;48.308;8.914;2024-02-15T07:11:23;2.50;99.90
16032;DHT22;8120;48.308;8.914;2024-02-15T07:13:51;2.60;99.90
16032;DHT22;8120;48.308;8.914;2024-02-15T07:16:21;2.70;99.90
16032;DHT22;8120;48.308;8.914;2024-02-15T07:18:49;2.90;99.90
16032;DHT22;8120;48.308;8.914;2024-02-15T07:21:21;3.00;99.90
16032;DHT22;8120;48.308;8.914;2024-02-15T07:23:53;3.20;99.10
16032;DHT22;8120;48.308;8.914;2024-02-15T07:26:21;3.50;98.50
16032;DHT22;8120;48.308;8.914;2024-02-15T07:28:51;3.80;97.70
16032;DHT22;8120;48.308;8.914;2024-02-15T07:31:20;4.10;96.40
16032;DHT22;8120;48.308;8.914;2024-02-15T07:33:49;4.30;94.90
16032;DHT22;8120;48.308;8.914;2024-02-15T07:36:19;4.40;92.20
16032;DHT22;8120;48.308;8.914;2024-02-15T07:38:50;4.50;90.50
16032;DHT22;8120;48.308;8.914;2024-02-15T07:41:18;4.50;89.20
16032;DHT22;8120;48.308;8.914;2024-02-15T07:43:49;4.60;88.90
16032;DHT22;8120;48.308;8.914;2024-02-15T07:46:18;4.70;88.80
16032;DHT22;8120;48.308;8.914;2024-02-15T07:48:46;4.90;88.60
16032;DHT22;8120;48.308;8.914;2024-02-15T07:51:15;5.10;88.60
16032;DHT22;8120;48.308;8.914;2024-02-15T07:53:45;5.40;88.20
16032;DHT22;8120;48.308;8.914;2024-02-15T07:56:15;5.60;87.70
16032;DHT22;8120;48.308;8.914;2024-02-15T07:58:44;5.90;86.60
16032;DHT22;8120;48.308;8.914;2024-02-15T08:01:19;6.10;86.30
16032;DHT22;8120;48.308;8.914;2024-02-15T08:03:50;6.20;86.10
16032;DHT22;8120;48.308;8.914;2024-02-15T08:06:20;6.40;85.00
16032;DHT22;8120;48.308;8.914;2024-02-15T08:08:52;6.50;84.90
16032;DHT22;8120;48.308;8.914;2024-02-15T08:11:21;6.10;86.40
16032;DHT22;8120;48.308;8.914;2024-02-15T08:13:51;6.00;86.80
16032;DHT22;8120;48.308;8.914;2024-02-15T08:16:22;6.00;87.80
16032;DHT22;8120;48.308;8.914;2024-02-15T08:18:50;5.90;87.20
16032;DHT22;8120;48.308;8.914;2024-02-15T08:21:25;5.80;88.70
16032;DHT22;8120;48.308;8.914;2024-02-15T08:23:53;5.80;88.10
16032;DHT22;8120;48.308;8.914;2024-02-15T08:26:23;6.00;89.20
16032;DHT22;8120;48.308;8.914;2024-02-15T08:28:51;6.30;88.90
16032;DHT22;8120;48.308;8.914;2024-02-15T08:31:21;6.60;87.40
16032;DHT22;8120;48.308;8.914;2024-02-15T08:33:49;6.90;85.10
16032;DHT22;8120;48.308;8.914;2024-02-15T08:36:17;7.00;84.80
16032;DHT22;8120;48.308;8.914;2024-02-15T08:38:45;7.30;85.50
16032;DHT22;8120;48.308;8.914;2024-02-15T08:41:13;7.70;83.70
16032;DHT22;8120;48.308;8.914;2024-02-15T08:43:42;8.00;81.70
16032;DHT22;8120;48.308;8.914;2024-02-15T08:46:10;8.20;80.40
16032;DHT22;8120;48.308;8.914;2024-02-15T08:48:39;8.20;81.20
16032;DHT22;8120;48.308;8.914;2024-02-15T08:51:07;8.40;80.30
16032;DHT22;8120;48.308;8.914;2024-02-15T08:53:36;8.70;80.00
16032;DHT22;8120;48.308;8.914;2024-02-15T08:56:04;8.80;79.40
16032;DHT22;8120;48.308;8.914;2024-02-15T08:58:32;8.80;80.20
16032;DHT22;8120;48.308;8.914;2024-02-15T09:01:02;8.80;80.70
16032;DHT22;8120;48.308;8.914;2024-02-15T09:03:31;8.60;82.40
16032;DHT22;8120;48.308;8.914;2024-02-15T09:05:59;8.70;83.20
16032;DHT22;8120;48.308;8.914;2024-02-15T09:08:30;9.00;81.10
16032;DHT22;8120;48.308;8.914;2024-02-15T09:10:59;9.20;80.70
16032;DHT22;8120;48.308;8.914;2024-02-15T09:13:28;9.10;81.50
16032;DHT22;8120;48.308;8.914;2024-02-15T09:15:55;9.10;80.30
16032;DHT22;8120;48.308;8.914;2024-02-15T09:18:25;9.30;79.90
16032;DHT22;8120;48.308;8.914;2024-02-15T09:20:53;9.70;78.80
16032;DHT22;8120;48.308;8.914;2024-02-15T09:23:22;10.00;77.80
16032;DHT22;8120;48.308;8.914;2024-02-15T09:25:51;10.30;77.10
16032;DHT22;8120;48.308;8.914;2024-02-15T09:28:19;10.60;76.40
16032;DHT22;8120;48.308;8.914;2024-02-15T09:30:49;10.80;75.30
16032;DHT22;8120;48.308;8.914;2024-02-15T09:33:19;11.00;74.80
16032;DHT22;8120;48.308;8.914;2024-02-15T09:35:48;11.00;73.70
16032;DHT22;8120;48.308;8.914;2024-02-15T09:38:16;11.10;71.20
16032;DHT22;8120;48.308;8.914;2024-02-15T09:40:48;11.20;71.60
16032;DHT22;8120;48.308;8.914;2024-02-15T09:43:17;11.20;71.20
16032;DHT22;8120;48.308;8.914;2024-02-15T09:45:44;11.30;70.10
16032;DHT22;8120;48.308;8.914;2024-02-15T09:48:15;11.30;70.30
16032;DHT22;8120;48.308;8.914;2024-02-15T09:50:45;11.30;70.10
16032;DHT22;8120;48.308;8.914;2024-02-15T09:53:15;11.40;69.40
16032;DHT22;8120;48.308;8.914;2024-02-15T09:55:44;11.60;69.40
16032;DHT22;8120;48.308;8.914;2024-02-15T09:58:12;11.80;69.10
16032;DHT22;8120;48.308;8.914;2024-02-15T10:00:40;12.00;68.90
16032;DHT22;8120;48.308;8.914;2024-02-15T10:03:11;12.30;67.90
16032;DHT22;8120;48.308;8.914;2024-02-15T10:05:43;12.20;66.30
16032;DHT22;8120;48.308;8.914;2024-02-15T10:08:12;12.40;66.70
16032;DHT22;8120;48.308;8.914;2024-02-15T10:10:41;12.40;65.60
16032;DHT22;8120;48.308;8.914;2024-02-15T10:13:12;12.40;66.20
16032;DHT22;8120;48.308;8.914;2024-02-15T10:15:41;12.40;63.60
16032;DHT22;8120;48.308;8.914;2024-02-15T10:18:10;12.60;63.90
16032;DHT22;8120;48.308;8.914;2024-02-15T10:20:41;12.80;63.60
16032;DHT22;8120;48.308;8.914;2024-02-15T10:23:13;13.10;62.30
16032;DHT22;8120;48.308;8.914;2024-02-15T10:25:45;12.90;61.20
16032;DHT22;8120;48.308;8.914;2024-02-15T10:28:20;13.10;60.60
16032;DHT22;8120;48.308;8.914;2024-02-15T10:30:50;13.30;60.10
16032;DHT22;8120;48.308;8.914;2024-02-15T10:33:25;12.90;58.90
16032;DHT22;8120;48.308;8.914;2024-02-15T10:36:05;12.60;61.00
16032;DHT22;8120;48.308;8.914;2024-02-15T10:38:33;13.00;59.70
16032;DHT22;8120;48.308;8.914;2024-02-15T10:41:05;13.30;58.70
16032;DHT22;8120;48.308;8.914;2024-02-15T10:43:34;13.40;58.00
16032;DHT22;8120;48.308;8.914;2024-02-15T10:46:04;13.30;58.20
16032;DHT22;8120;48.308;8.914;2024-02-15T10:48:34;13.30;57.60
16032;DHT22;8120;48.308;8.914;2024-02-15T10:51:03;13.40;56.90
16032;DHT22;8120;48.308;8.914;2024-02-15T10:53:35;13.60;57.00
16032;DHT22;8120;48.308;8.914;2024-02-15T10:56:15;13.50;57.10
16032;DHT22;8120;48.308;8.914;2024-02-15T10:58:48;13.50;57.60
16032;DHT22;8120;48.308;8.914;2024-02-15T11:01:18;13.60;57.30
16032;DHT22;8120;48.308;8.914;2024-02-15T11:03:50;13.80;56.30
16032;DHT22;8120;48.308;8.914;2024-02-15T11:06:20;13.70;56.10
16032;DHT22;8120;48.308;8.914;2024-02-15T11:08:49;14.00;56.30
16032;DHT22;8120;48.308;8.914;2024-02-15T11:11:19;14.20;55.10
16032;DHT22;8120;48.308;8.914;2024-02-15T11:13:48;14.40;54.90
16032;DHT22;8120;48.308;8.914;2024-02-15T11:16:39;14.70;55.10
16032;DHT22;8120;48.308;8.914;2024-02-15T11:19:07;14.80;54.00
16032;DHT22;8120;48.308;8.914;2024-02-15T11:21:52;14.70;53.80
16032;DHT22;8120;48.308;8.914;2024-02-15T11:24:25;14.50;54.50
16032;DHT22;8120;48.308;8.914;2024-02-15T11:26:59;14.20;54.40
16032;DHT22;8120;48.308;8.914;2024-02-15T11:29:48;14.20;54.80
16032;DHT22;8120;48.308;8.914;2024-02-15T11:32:37;14.40;55.40
16032;DHT22;8120;48.308;8.914;2024-02-15T11:35:08;14.40;54.80
16032;DHT22;8120;48.308;8.914;2024-02-15T11:37:57;14.30;55.10
16032;DHT22;8120;48.308;8.914;2024-02-15T11:40:29;14.10;55.60
16032;DHT22;8120;48.308;8.914;2024-02-15T11:43:48;14.20;54.70
16032;DHT22;8120;48.308;8.914;2024-02-15T11:46:24;14.40;55.50
16032;DHT22;8120;48.308;8.914;2024-02-15T11:48:53;14.30;54.70
16032;DHT22;8120;48.308;8.914;2024-02-15T11:51:27;14.20;53.80
16032;DHT22;8120;48.308;8.914;2024-02-15T11:54:02;14.50;53.90
16032;DHT22;8120;48.308;8.914;2024-02-15T11:56:48;14.40;52.60
16032;DHT22;8120;48.308;8.914;2024-02-15T11:59:20;14.60;52.70
16032;DHT22;8120;48.308;8.914;2024-02-15T12:01:58;14.90;53.30
16032;DHT22;8120;48.308;8.914;2024-02-15T12:04:44;15.10;53.30
16032;DHT22;8120;48.308;8.914;2024-02-15T12:07:32;14.90;52.50
16032;DHT22;8120;48.308;8.914;2024-02-15T12:10:19;14.90;52.90
16032;DHT22;8120;48.308;8.914;2024-02-15T12:13:04;15.20;53.70
16032;DHT22;8120;48.308;8.914;2024-02-15T12:16:00;15.20;53.60
16032;DHT22;8120;48.308;8.914;2024-02-15T12:18:46;14.90;53.20
16032;DHT22;8120;48.308;8.914;2024-02-15T12:21:17;15.10;54.50
16032;DHT22;8120;48.308;8.914;2024-02-15T12:23:45;15.40;53.20
16032;DHT22;8120;48.308;8.914;2024-02-15T12:26:14;15.40;54.70
16032;DHT22;8120;48.308;8.914;2024-02-15T12:28:42;15.20;53.50
16032;DHT22;8120;48.308;8.914;2024-02-15T12:31:15;15.00;53.30
16032;DHT22;8120;48.308;8.914;2024-02-15T12:33:43;14.90;54.30
16032;DHT22;8120;48.308;8.914;2024-02-15T12:36:13;14.90;54.80
16032;DHT22;8120;48.308;8.914;2024-02-15T12:38:43;14.50;55.70
16032;DHT22;8120;48.308;8.914;2024-02-15T12:41:19;14.60;55.50
16032;DHT22;8120;48.308;8.914;2024-02-15T12:43:52;14.60;55.20
16032;DHT22;8120;48.308;8.914;2024-02-15T12:46:21;14.70;54.60
16032;DHT22;8120;48.308;8.914;2024-02-15T12:48:49;14.80;54.20
16032;DHT22;8120;48.308;8.914;2024-02-15T12:51:19;14.50;55.10
16032;DHT22;8120;48.308;8.914;2024-02-15T12:53:48;14.20;55.20
16032;DHT22;8120;48.308;8.914;2024-02-15T12:56:20;14.40;55.20
16032;DHT22;8120;48.308;8.914;2024-02-15T12:58:50;14.30;55.90
16032;DHT22;8120;48.308;8.914;2024-02-15T13:01:18;14.70;55.90
16032;DHT22;8120;48.308;8.914;2024-02-15T13:03:48;15.20;54.10
16032;DHT22;8120;48.308;8.914;2024-02-15T13:06:18;15.20;53.40
16032;DHT22;8120;48.308;8.914;2024-02-15T13:08:50;15.10;54.40
16032;DHT22;8120;48.308;8.914;2024-02-15T13:11:18;15.50;53.70
16032;DHT22;8120;48.308;8.914;2024-02-15T13:13:46;15.60;52.70
16032;DHT22;8120;48.308;8.914;2024-02-15T13:16:14;15.50;52.10
16032;DHT22;8120;48.308;8.914;2024-02-15T13:18:42;15.90;52.30
16032;DHT22;8120;48.308;8.914;2024-02-15T13:21:12;15.80;51.50
16032;DHT22;8120;48.308;8.914;2024-02-15T13:23:39;15.50;52.50
16032;DHT22;8120;48.308;8.914;2024-02-15T13:26:07;15.60;52.00
16032;DHT22;8120;48.308;8.914;2024-02-15T13:28:38;15.90;52.60
16032;DHT22;8120;48.308;8.914;2024-02-15T13:31:06;16.10;52.10
16032;DHT22;8120;48.308;8.914;2024-02-15T13:33:34;16.00;52.40
16032;DHT22;8120;48.308;8.914;2024-02-15T13:36:03;16.00;51.60
16032;DHT22;8120;48.308;8.914;2024-02-15T13:38:34;16.10;51.80
16032;DHT22;8120;48.308;8.914;2024-02-15T13:41:03;15.90;52.50
16032;DHT22;8120;48.308;8.914;2024-02-15T13:43:32;15.70;53.70
16032;DHT22;8120;48.308;8.914;2024-02-15T13:46:01;15.60;53.40
16032;DHT22;8120;48.308;8.914;2024-02-15T13:48:30;15.40;53.60
16032;DHT22;8120;48.308;8.914;2024-02-15T13:50:58;15.30;54.50
16032;DHT22;8120;48.308;8.914;2024-02-15T13:53:26;15.20;55.30
16032;DHT22;8120;48.308;8.914;2024-02-15T13:55:56;15.30;55.30
16032;DHT22;8120;48.308;8.914;2024-02-15T13:58:24;15.30;54.10
16032;DHT22;8120;48.308;8.914;2024-02-15T14:00:52;15.30;55.00
16032;DHT22;8120;48.308;8.914;2024-02-15T14:03:20;15.40;55.10
16032;DHT22;8120;48.308;8.914;2024-02-15T14:05:49;15.50;54.50
16032;DHT22;8120;48.308;8.914;2024-02-15T14:08:17;15.50;54.50
16032;DHT22;8120;48.308;8.914;2024-02-15T14:10:47;15.60;55.70
16032;DHT22;8120;48.308;8.914;2024-02-15T14:13:16;15.70;55.00
16032;DHT22;8120;48.308;8.914;2024-02-15T14:15:45;15.70;55.10
16032;DHT22;8120;48.308;8.914;2024-02-15T14:18:13;15.60;55.00
16032;DHT22;8120;48.308;8.914;2024-02-15T14:20:42;15.50;55.30
16032;DHT22;8120;48.308;8.914;2024-02-15T14:23:10;15.60;54.90
16032;DHT22;8120;48.308;8.914;2024-02-15T14:25:41;15.40;55.20
16032;DHT22;8120;48.308;8.914;2024-02-15T14:28:09;15.50;55.40
16032;DHT22;8120;48.308;8.914;2024-02-15T14:30:39;15.40;55.40
16032;DHT22;8120;48.308;8.914;2024-02-15T14:33:25;15.40;55.30
16032;DHT22;8120;48.308;8.914;2024-02-15T14:35:56;15.30;55.60
16032;DHT22;8120;48.308;8.914;2024-02-15T14:38:26;15.30;56.00
16032;DHT22;8120;48.308;8.914;2024-02-15T14:40:54;15.30;56.50
16032;DHT22;8120;48.308;8.914;2024-02-15T14:43:25;15.20;56.20
16032;DHT22;8120;48.308;8.914;2024-02-15T14:45:55;15.20;56.50
16032;DHT22;8120;48.308;8.914;2024-02-15T14:48:25;15.30;56.10
16032;DHT22;8120;48.308;8.914;2024-02-15T14:50:53;15.30;56.90
16032;DHT22;8120;48.308;8.914;2024-02-15T14:53:23;15.20;56.50
16032;DHT22;8120;48.308;8.914;2024-02-15T14:55:51;15.10;57.20
16032;DHT22;8120;48.308;8.914;2024-02-15T14:58:20;15.10;57.60
16032;DHT22;8120;48.308;8.914;2024-02-15T15:00:49;15.10;57.00
16032;DHT22;8120;48.308;8.914;2024-02-15T15:03:30;15.00;58.20
16032;DHT22;8120;48.308;8.914;2024-02-15T15:05:59;14.90;58.80
16032;DHT22;8120;48.308;8.914;2024-02-15T15:08:44;14.80;58.70
16032;DHT22;8120;48.308;8.914;2024-02-15T15:11:30;14.80;59.30
16032;DHT22;8120;48.308;8.914;2024-02-15T15:14:27;14.80;59.20
16032;DHT22;8120;48.308;8.914;2024-02-15T15:16:55;14.70;59.10
16032;DHT22;8120;48.308;8.914;2024-02-15T15:19:24;14.70;58.90
16032;DHT22;8120;48.308;8.914;2024-02-15T15:21:52;14.70;59.30
16032;DHT22;8120;48.308;8.914;2024-02-15T15:24:20;14.60;59.10
16032;DHT22;8120;48.308;8.914;2024-02-15T15:26:48;14.50;59.50
16032;DHT22;8120;48.308;8.914;2024-02-15T15:29:16;14.40;59.80
16032;DHT22;8120;48.308;8.914;2024-02-15T15:31:44;14.30;59.90
16032;DHT22;8120;48.308;8.914;2024-02-15T15:34:12;14.30;60.20
16032;DHT22;8120;48.308;8.914;2024-02-15T15:36:41;14.20;60.90
16032;DHT22;8120;48.308;8.914;2024-02-15T15:39:09;14.10;61.00
16032;DHT22;8120;48.308;8.914;2024-02-15T15:41:37;14.10;61.40
16032;DHT22;8120;48.308;8.914;2024-02-15T15:44:05;14.00;62.30
16032;DHT22;8120;48.308;8.914;2024-02-15T15:46:33;14.00;62.20
16032;DHT22;8120;48.308;8.914;2024-02-15T15:49:03;13.90;62.30
16032;DHT22;8120;48.308;8.914;2024-02-15T15:51:32;13.80;62.80
16032;DHT22;8120;48.308;8.914;2024-02-15T15:54:01;13.80;63.80
16032;DHT22;8120;48.308;8.914;2024-02-15T15:56:32;13.60;65.20
16032;DHT22;8120;48.308;8.914;2024-02-15T15:59:00;13.40;67.50
16032;DHT22;8120;48.308;8.914;2024-02-15T16:01:28;13.20;68.50
16032;DHT22;8120;48.308;8.914;2024-02-15T16:03:57;13.00;69.30
16032;DHT22;8120;48.308;8.914;2024-02-15T16:06:25;12.90;69.80
16032;DHT22;8120;48.308;8.914;2024-02-15T16:08:53;12.80;69.00
16032;DHT22;8120;48.308;8.914;2024-02-15T16:11:22;12.80;68.70
16032;DHT22;8120;48.308;8.914;2024-02-15T16:13:50;12.80;69.70
16032;DHT22;8120;48.308;8.914;2024-02-15T16:16:18;12.70;69.10